createdAt,value
2024-05-09T00:00:29.926Z,11.90
2024-05-09T00:03:32.536Z,11.89
2024-05-09T00:06:30.027Z,11.87
2024-05-09T00:09:27.483Z,11.85
2024-05-09T00:12:24.753Z,11.83
2024-05-09T00:15:22.447Z,11.80
2024-05-09T00:18:19.944Z,11.79
2024-05-09T00:21:17.492Z,11.77
2024-05-09T00:24:14.712Z,11.75
2024-05-09T00:27:13.439Z,11.72
2024-05-09T00:30:17.451Z,11.70
2024-05-09T00:33:18.985Z,11.68
2024-05-09T00:36:16.710Z,11.67
2024-05-09T00:39:13.875Z,11.66
2024-05-09T00:42:11.332Z,11.65
2024-05-09T00:45:08.510Z,11.64
2024-05-09T00:48:08.026Z,11.62
2024-05-09T00:51:06.787Z,11.61
2024-05-09T00:54:05.543Z,11.59
2024-05-09T00:57:02.917Z,11.57
2024-05-09T01:00:00.123Z,11.57
2024-05-09T01:02:57.660Z,11.55
2024-05-09T01:05:55.162Z,11.55
2024-05-09T01:08:52.666Z,11.54
2024-05-09T01:11:50.180Z,11.53
2024-05-09T01:14:47.559Z,11.52
2024-05-09T01:17:46.328Z,11.51
2024-05-09T01:20:45.224Z,11.51
2024-05-09T01:23:43.052Z,11.51
2024-05-09T01:26:40.303Z,11.51
2024-05-09T01:29:37.722Z,11.52
2024-05-09T01:32:35.467Z,11.52
2024-05-09T01:35:32.777Z,11.52
2024-05-09T01:38:30.495Z,11.51
2024-05-09T01:41:27.951Z,11.51
2024-05-09T01:44:25.955Z,11.50
2024-05-09T01:47:23.563Z,11.50
2024-05-09T01:50:33.043Z,11.50
2024-05-09T01:53:34.788Z,11.48
2024-05-09T01:56:32.378Z,11.48
2024-05-09T01:59:29.578Z,11.47
2024-05-09T02:02:27.145Z,11.46
2024-05-09T02:05:24.865Z,11.44
2024-05-09T02:08:22.419Z,11.44
2024-05-09T02:11:20.097Z,11.43
2024-05-09T02:14:17.326Z,11.42
2024-05-09T02:17:14.903Z,11.39
2024-05-09T02:20:18.840Z,11.37
2024-05-09T02:23:24.706Z,11.35
2024-05-09T02:26:22.422Z,11.34
2024-05-09T02:29:19.832Z,11.33
2024-05-09T02:32:17.471Z,11.32
2024-05-09T02:35:14.730Z,11.30
2024-05-09T02:38:12.514Z,11.29
2024-05-09T02:41:10.326Z,11.27
2024-05-09T02:44:07.604Z,11.26
2024-05-09T02:47:05.117Z,11.25
2024-05-09T02:50:02.487Z,11.25
2024-05-09T02:52:59.972Z,11.23
2024-05-09T02:55:57.202Z,11.22
2024-05-09T02:58:54.748Z,11.22
2024-05-09T03:01:52.441Z,11.22
2024-05-09T03:04:49.755Z,11.22
2024-05-09T03:07:47.380Z,11.20
2024-05-09T03:10:44.574Z,11.19
2024-05-09T03:13:41.969Z,11.19
2024-05-09T03:16:39.146Z,11.18
2024-05-09T03:19:36.676Z,11.17
2024-05-09T03:22:34.099Z,11.16
2024-05-09T03:25:31.352Z,11.15
2024-05-09T03:28:28.732Z,11.16
2024-05-09T03:31:25.959Z,11.14
2024-05-09T03:34:23.482Z,11.13
2024-05-09T03:37:20.691Z,11.12
2024-05-09T03:40:23.488Z,11.10
2024-05-09T03:43:23.614Z,11.09
2024-05-09T03:46:20.826Z,11.08
2024-05-09T03:49:19.043Z,11.07
2024-05-09T03:52:16.341Z,11.08
2024-05-09T03:55:13.774Z,11.08
2024-05-09T03:58:13.171Z,11.08
2024-05-09T04:01:10.438Z,11.09
2024-05-09T04:04:09.078Z,11.10
2024-05-09T04:07:06.573Z,11.13
2024-05-09T04:10:05.243Z,11.15
2024-05-09T04:13:03.037Z,11.17
2024-05-09T04:16:00.865Z,11.19
2024-05-09T04:18:58.399Z,11.21
2024-05-09T04:21:55.666Z,11.22
2024-05-09T04:24:53.549Z,11.24
2024-05-09T04:27:55.472Z,11.25
2024-05-09T04:30:52.850Z,11.26
2024-05-09T04:33:50.168Z,11.26
2024-05-09T04:36:47.827Z,11.27
2024-05-09T04:39:45.191Z,11.31
2024-05-09T04:42:42.377Z,11.33
2024-05-09T04:45:39.726Z,11.37
2024-05-09T04:48:37.017Z,11.41
2024-05-09T04:51:34.589Z,11.47
2024-05-09T04:54:36.258Z,11.54
2024-05-09T04:57:34.095Z,11.62
2024-05-09T05:00:36.288Z,11.69
2024-05-09T05:03:35.610Z,11.74
2024-05-09T05:06:33.371Z,11.79
2024-05-09T05:09:30.545Z,11.83
2024-05-09T05:12:46.095Z,11.88
2024-05-09T05:15:43.422Z,11.96
2024-05-09T05:18:40.672Z,12.04
2024-05-09T05:21:38.122Z,12.13
2024-05-09T05:24:35.288Z,12.22
2024-05-09T05:27:32.643Z,12.32
2024-05-09T05:30:34.474Z,12.42
2024-05-09T05:33:32.825Z,12.53
2024-05-09T05:36:30.390Z,12.65
2024-05-09T05:39:27.594Z,12.76
2024-05-09T05:42:25.006Z,12.87
2024-05-09T05:45:22.203Z,12.96
2024-05-09T05:48:19.897Z,13.04
2024-05-09T05:51:17.718Z,13.12
2024-05-09T05:54:15.085Z,13.22
2024-05-09T05:57:13.840Z,13.31
2024-05-09T06:00:17.981Z,13.41
2024-05-09T06:03:19.148Z,13.50
2024-05-09T06:06:16.346Z,13.59
2024-05-09T06:09:13.814Z,13.68
2024-05-09T06:12:11.406Z,13.80
2024-05-09T06:15:08.718Z,13.93
2024-05-09T06:18:06.352Z,14.11
2024-05-09T06:21:03.844Z,14.28
2024-05-09T06:24:03.786Z,14.49
2024-05-09T06:27:04.193Z,14.72
2024-05-09T06:30:01.379Z,14.95
2024-05-09T06:32:59.042Z,15.18
2024-05-09T06:35:59.286Z,15.42
2024-05-09T06:38:56.810Z,15.66
2024-05-09T06:41:54.010Z,15.89
2024-05-09T06:44:51.525Z,16.13
2024-05-09T06:47:49.020Z,16.33
2024-05-09T06:50:46.461Z,16.51
2024-05-09T06:53:43.974Z,16.65
2024-05-09T06:56:41.214Z,16.81
2024-05-09T06:59:38.767Z,17.00
2024-05-09T07:02:36.255Z,17.17
2024-05-09T07:05:34.044Z,17.29
2024-05-09T07:08:31.728Z,17.38
2024-05-09T07:11:31.130Z,17.44
2024-05-09T07:14:29.142Z,17.52
2024-05-09T07:17:26.553Z,17.61
2024-05-09T07:20:32.285Z,17.68
2024-05-09T07:23:32.414Z,17.86
2024-05-09T07:26:29.715Z,18.07
2024-05-09T07:29:27.353Z,18.26
2024-05-09T07:32:24.700Z,18.43
2024-05-09T07:35:22.507Z,18.61
2024-05-09T07:38:19.905Z,18.78
2024-05-09T07:41:17.651Z,18.98
2024-05-09T07:44:15.149Z,19.21
2024-05-09T07:48:27.673Z,19.45
2024-05-09T07:53:40.293Z,19.86
2024-05-09T07:56:42.059Z,20.03
2024-05-09T07:59:39.375Z,20.18
2024-05-09T08:02:36.998Z,20.27
2024-05-09T08:05:34.765Z,20.44
2024-05-09T08:08:32.089Z,20.69
2024-05-09T08:11:29.627Z,20.97
2024-05-09T08:14:26.798Z,21.27
2024-05-09T08:17:24.449Z,21.55
2024-05-09T08:20:30.270Z,21.83
2024-05-09T08:23:28.995Z,22.07
2024-05-09T08:26:26.534Z,22.29
2024-05-09T08:29:23.723Z,22.56
2024-05-09T08:32:21.296Z,22.90
2024-05-09T08:35:18.508Z,23.12
2024-05-09T08:38:15.986Z,23.32
2024-05-09T08:41:13.354Z,23.56
2024-05-09T08:44:10.599Z,23.85
2024-05-09T08:47:09.988Z,24.16
2024-05-09T08:50:10.943Z,24.29
2024-05-09T08:53:11.237Z,24.31
2024-05-09T08:56:08.652Z,24.52
2024-05-09T08:59:05.810Z,24.71
2024-05-09T09:02:03.251Z,24.84
2024-05-09T09:05:00.649Z,25.09
2024-05-09T09:07:58.337Z,25.41
2024-05-09T09:10:55.562Z,25.68
2024-05-09T09:13:53.023Z,25.84
2024-05-09T09:16:51.822Z,25.99
2024-05-09T09:19:49.090Z,26.04
2024-05-09T09:22:46.529Z,26.23
2024-05-09T09:25:43.728Z,26.57
2024-05-09T09:28:41.639Z,26.82
2024-05-09T09:31:39.127Z,27.03
2024-05-09T09:34:36.935Z,27.19
2024-05-09T09:37:36.101Z,27.32
2024-05-09T09:40:35.839Z,27.52
2024-05-09T09:43:35.973Z,27.74
2024-05-09T09:46:33.195Z,28.03
2024-05-09T09:49:31.659Z,28.40
2024-05-09T09:52:29.011Z,28.63
2024-05-09T09:55:26.469Z,28.70
2024-05-09T09:58:24.164Z,28.69
2024-05-09T10:01:21.565Z,28.65
2024-05-09T10:04:19.492Z,28.77
2024-05-09T10:07:16.835Z,29.00
2024-05-09T10:10:16.600Z,29.13
2024-05-09T10:13:18.171Z,29.19
2024-05-09T10:16:15.714Z,29.23
2024-05-09T10:19:13.310Z,29.30
2024-05-09T10:22:10.829Z,29.30
2024-05-09T10:25:08.403Z,29.49
2024-05-09T10:28:05.637Z,29.64
2024-05-09T10:31:03.251Z,29.76
2024-05-09T10:34:02.727Z,29.82
2024-05-09T10:37:01.422Z,29.91
2024-05-09T10:39:59.590Z,29.94
2024-05-09T10:42:57.162Z,29.99
2024-05-09T10:45:54.897Z,30.14
2024-05-09T10:48:52.242Z,30.42
2024-05-09T10:51:50.812Z,30.73
2024-05-09T10:54:48.236Z,30.91
2024-05-09T10:57:45.777Z,31.01
2024-05-09T11:00:43.469Z,31.14
2024-05-09T11:03:41.003Z,31.19
2024-05-09T11:06:38.735Z,31.18
2024-05-09T11:09:36.102Z,31.10
2024-05-09T11:12:33.737Z,31.04
2024-05-09T11:15:30.971Z,31.05
2024-05-09T11:18:30.800Z,31.15
2024-05-09T11:21:31.424Z,31.18
2024-05-09T11:24:28.642Z,31.18
2024-05-09T11:27:26.196Z,31.34
2024-05-09T11:30:29.794Z,31.51
2024-05-09T11:33:29.651Z,31.64
2024-05-09T11:36:27.317Z,31.79
2024-05-09T11:39:24.661Z,31.89
2024-05-09T11:42:22.595Z,31.89
2024-05-09T11:45:19.851Z,31.89
2024-05-09T11:48:17.397Z,31.70
2024-05-09T11:51:14.928Z,31.61
2024-05-09T11:54:12.111Z,31.46
2024-05-09T11:57:10.420Z,31.42
2024-05-09T12:00:09.620Z,31.37
2024-05-09T12:03:09.384Z,31.27
2024-05-09T12:06:06.853Z,31.16
2024-05-09T12:09:04.446Z,31.08
2024-05-09T12:12:01.789Z,31.06
2024-05-09T12:14:59.271Z,31.16
2024-05-09T12:17:59.015Z,31.28
2024-05-09T12:20:58.703Z,31.29
2024-05-09T12:23:56.403Z,31.27
2024-05-09T12:26:53.580Z,31.18
2024-05-09T12:29:51.040Z,31.08
2024-05-09T12:32:48.579Z,30.93
2024-05-09T12:35:48.168Z,30.86
2024-05-09T12:38:47.294Z,30.75
2024-05-09T12:41:44.806Z,30.50
2024-05-09T12:44:41.963Z,30.52
2024-05-09T12:47:39.490Z,30.61
2024-05-09T12:50:37.247Z,30.72
2024-05-09T12:53:34.498Z,30.83
2024-05-09T12:56:33.589Z,30.88
2024-05-09T12:59:30.790Z,30.83
2024-05-09T13:02:28.419Z,30.78
2024-05-09T13:05:25.907Z,30.57
2024-05-09T13:08:23.587Z,30.36
2024-05-09T13:11:20.818Z,30.17
2024-05-09T13:14:18.327Z,29.87
2024-05-09T13:17:15.887Z,29.69
2024-05-09T13:20:22.332Z,29.65
2024-05-09T13:23:23.655Z,29.64
2024-05-09T13:26:20.883Z,29.68
2024-05-09T13:29:18.442Z,29.71
2024-05-09T13:32:15.658Z,29.80
2024-05-09T13:35:13.145Z,29.85
2024-05-09T13:38:10.540Z,29.85
2024-05-09T13:41:08.362Z,29.86
2024-05-09T13:44:05.821Z,29.86
2024-05-09T13:47:03.047Z,29.82
2024-05-09T13:50:00.474Z,29.76
2024-05-09T13:52:57.649Z,29.66
2024-05-09T13:55:55.139Z,29.47
2024-05-09T13:58:52.336Z,29.23
2024-05-09T14:01:49.968Z,29.03
2024-05-09T14:04:47.415Z,28.97
2024-05-09T14:07:45.006Z,28.91
2024-05-09T14:10:44.306Z,28.73
2024-05-09T14:13:42.268Z,28.51
2024-05-09T14:16:39.681Z,28.32
2024-05-09T14:19:37.300Z,28.27
2024-05-09T14:22:35.366Z,28.27
2024-05-09T14:25:36.605Z,28.31
2024-05-09T14:28:36.209Z,28.29
2024-05-09T14:31:35.457Z,28.20
2024-05-09T14:34:33.947Z,28.09
2024-05-09T14:37:31.232Z,27.99
2024-05-09T14:40:38.941Z,27.94
2024-05-09T14:43:40.354Z,27.96
2024-05-09T14:46:37.866Z,27.99
2024-05-09T14:49:35.339Z,27.98
2024-05-09T14:52:32.690Z,27.96
2024-05-09T14:55:30.615Z,27.91
2024-05-09T14:58:28.004Z,27.82
2024-05-09T15:01:25.555Z,27.71
2024-05-09T15:04:22.860Z,27.51
2024-05-09T15:07:20.492Z,27.35
2024-05-09T15:10:26.493Z,27.15
2024-05-09T15:13:31.161Z,26.93
2024-05-09T15:16:28.650Z,26.85
2024-05-09T15:19:26.034Z,26.84
2024-05-09T15:22:23.776Z,26.79
2024-05-09T15:25:21.007Z,26.75
2024-05-09T15:28:18.812Z,26.64
2024-05-09T15:31:16.177Z,26.53
2024-05-09T15:34:13.754Z,26.39
2024-05-09T15:37:10.986Z,26.20
2024-05-09T15:40:15.376Z,25.98
2024-05-09T15:43:19.576Z,25.81
2024-05-09T15:46:16.887Z,25.65
2024-05-09T15:49:14.645Z,25.43
2024-05-09T15:52:12.184Z,25.23
2024-05-09T15:55:10.971Z,25.11
2024-05-09T15:58:08.499Z,24.97
2024-05-09T16:01:06.250Z,24.80
2024-05-09T16:04:03.964Z,24.65
2024-05-09T16:07:01.390Z,24.54
2024-05-09T16:09:59.231Z,24.46
2024-05-09T16:12:56.907Z,24.26
2024-05-09T16:15:54.708Z,24.06
2024-05-09T16:18:52.065Z,23.91
2024-05-09T16:21:49.506Z,23.76
2024-05-09T16:24:46.823Z,23.62
2024-05-09T16:27:44.319Z,23.48
2024-05-09T16:30:41.877Z,23.29
2024-05-09T16:33:40.298Z,23.14
2024-05-09T16:36:38.129Z,22.99
2024-05-09T16:39:35.316Z,22.86
2024-05-09T16:42:32.699Z,22.73
2024-05-09T16:45:30.284Z,22.60
2024-05-09T16:48:27.628Z,22.48
2024-05-09T16:51:26.014Z,22.37
2024-05-09T16:54:23.201Z,22.26
2024-05-09T16:57:20.605Z,22.16
2024-05-09T17:00:22.667Z,22.04
2024-05-09T17:03:28.962Z,21.92
2024-05-09T17:06:26.418Z,21.80
2024-05-09T17:09:23.581Z,21.67
2024-05-09T17:12:21.053Z,21.56
2024-05-09T17:15:18.270Z,21.46
2024-05-09T17:18:15.947Z,21.36
2024-05-09T17:21:13.631Z,21.28
2024-05-09T17:24:10.854Z,21.18
2024-05-09T17:27:08.251Z,21.07
2024-05-09T17:30:06.391Z,20.96
2024-05-09T17:33:05.723Z,20.85
2024-05-09T17:36:03.108Z,20.76
2024-05-09T17:39:00.520Z,20.65
2024-05-09T17:41:57.700Z,20.55
2024-05-09T17:44:55.039Z,20.44
2024-05-09T17:47:52.435Z,20.34
2024-05-09T17:50:51.617Z,20.23
2024-05-09T17:53:49.876Z,20.11
2024-05-09T17:56:47.085Z,20.02
2024-05-09T17:59:44.862Z,19.93
2024-05-09T18:02:42.744Z,19.82
2024-05-09T18:05:40.416Z,19.72
2024-05-09T18:08:37.755Z,19.60
2024-05-09T18:11:35.283Z,19.48
2024-05-09T18:14:32.658Z,19.37
2024-05-09T18:17:30.027Z,19.25
2024-05-09T18:20:37.610Z,19.12
2024-05-09T18:23:40.393Z,18.97
2024-05-09T18:26:38.016Z,18.83
2024-05-09T18:29:35.200Z,18.69
2024-05-09T18:32:32.767Z,18.57
2024-05-09T18:35:30.141Z,18.45
2024-05-09T18:38:27.661Z,18.33
2024-05-09T18:41:25.224Z,18.21
2024-05-09T18:44:22.381Z,18.09
2024-05-09T18:47:20.612Z,17.98
2024-05-09T18:50:28.241Z,17.89
2024-05-09T18:53:32.161Z,17.79
2024-05-09T18:56:29.364Z,17.69
2024-05-09T18:59:26.967Z,17.59
2024-05-09T19:02:24.385Z,17.51
2024-05-09T19:05:22.221Z,17.44
2024-05-09T19:08:19.609Z,17.37
2024-05-09T19:11:17.796Z,17.31
2024-05-09T19:14:15.164Z,17.23
2024-05-09T19:17:12.342Z,17.17
2024-05-09T19:20:20.206Z,17.10
2024-05-09T19:23:22.860Z,17.04
2024-05-09T19:26:21.114Z,16.98
2024-05-09T19:29:18.554Z,16.93
2024-05-09T19:32:15.743Z,16.90
2024-05-09T19:35:13.265Z,16.87
2024-05-09T19:38:10.442Z,16.84
2024-05-09T19:41:07.873Z,16.81
2024-05-09T19:44:05.351Z,16.77
2024-05-09T19:47:02.572Z,16.76
2024-05-09T19:50:00.230Z,16.74
2024-05-09T19:52:57.654Z,16.73
2024-05-09T19:55:55.806Z,16.71
2024-05-09T19:58:52.981Z,16.69
2024-05-09T20:01:50.649Z,16.66
2024-05-09T20:04:49.057Z,16.65
2024-05-09T20:07:46.317Z,16.63
2024-05-09T20:10:43.932Z,16.61
2024-05-09T20:13:41.236Z,16.58
2024-05-09T20:16:38.749Z,16.54
2024-05-09T20:19:36.024Z,16.52
2024-05-09T20:22:33.663Z,16.49
2024-05-09T20:25:31.127Z,16.47
2024-05-09T20:28:28.597Z,16.44
2024-05-09T20:31:26.413Z,16.42
2024-05-09T20:34:23.787Z,16.40
2024-05-09T20:37:21.590Z,16.36
2024-05-09T20:40:25.775Z,16.34
2024-05-09T20:43:28.973Z,16.32
2024-05-09T20:46:26.534Z,16.28
2024-05-09T20:49:24.442Z,16.27
2024-05-09T20:52:22.257Z,16.24
2024-05-09T20:55:20.703Z,16.22
2024-05-09T20:58:18.128Z,16.20
2024-05-09T21:01:15.456Z,16.18
2024-05-09T21:04:13.272Z,16.15
2024-05-09T21:07:11.041Z,16.13
2024-05-09T21:10:15.468Z,16.11
2024-05-09T21:13:17.084Z,16.07
2024-05-09T21:16:14.376Z,16.04
2024-05-09T21:19:12.323Z,16.00
2024-05-09T21:22:09.652Z,15.97
2024-05-09T21:25:07.037Z,15.94
2024-05-09T21:28:04.384Z,15.91
2024-05-09T21:31:01.874Z,15.86
2024-05-09T21:33:59.207Z,15.80
2024-05-09T21:36:57.308Z,15.75
2024-05-09T21:39:54.662Z,15.70
2024-05-09T21:42:52.137Z,15.65
2024-05-09T21:45:49.564Z,15.62
2024-05-09T21:48:46.872Z,15.57
2024-05-09T21:51:44.456Z,15.53
2024-05-09T21:54:41.732Z,15.46
2024-05-09T21:57:39.164Z,15.39
2024-05-09T22:00:39.242Z,15.33
2024-05-09T22:03:36.982Z,15.27
2024-05-09T22:06:34.574Z,15.21
2024-05-09T22:09:31.923Z,15.15
2024-05-09T22:12:29.305Z,15.08
2024-05-09T22:15:26.871Z,15.02
2024-05-09T22:18:24.345Z,14.95
2024-05-09T22:21:21.823Z,14.88
2024-05-09T22:24:19.237Z,14.80
2024-05-09T22:27:16.604Z,14.71
2024-05-09T22:30:21.214Z,14.62
2024-05-09T22:33:24.702Z,14.52
2024-05-09T22:36:21.887Z,14.42
2024-05-09T22:39:19.320Z,14.32
2024-05-09T22:42:16.498Z,14.24
2024-05-09T22:45:13.847Z,14.16
2024-05-09T22:48:11.134Z,14.08
2024-05-09T22:51:08.647Z,14.00
2024-05-09T22:54:06.118Z,13.92
2024-05-09T22:57:03.296Z,13.84
2024-05-09T23:00:00.663Z,13.77
2024-05-09T23:02:57.957Z,13.69
2024-05-09T23:05:55.427Z,13.62
2024-05-09T23:08:52.683Z,13.55
2024-05-09T23:11:50.200Z,13.50
2024-05-09T23:14:47.451Z,13.44
2024-05-09T23:17:45.180Z,13.39
2024-05-09T23:20:42.947Z,13.34
2024-05-09T23:23:40.158Z,13.29
2024-05-09T23:26:37.498Z,13.25
2024-05-09T23:29:34.696Z,13.20
2024-05-09T23:32:32.325Z,13.16
2024-05-09T23:35:29.545Z,13.11
2024-05-09T23:38:27.086Z,13.06
2024-05-09T23:41:24.408Z,13.01
2024-05-09T23:44:21.569Z,12.96
2024-05-09T23:47:19.104Z,12.92
2024-05-09T23:50:20.702Z,12.88
2024-05-09T23:53:23.913Z,12.84
2024-05-09T23:56:21.792Z,12.81
2024-05-09T23:59:19.336Z,12.78
